DUB weather

Dublin Airport
Dublin, County Dublin, Ireland

Public forecast

Using degrees Celsius for public forecast. Weather courtesy of forecast.io.

Current aviation weather report (METAR) for Dublin Airport

Retrieved 2019/10/21 21:30 UTC (0 seconds ago):

EIDW 212130Z 20004KT 9999 FEW017 SCT250 06/03 Q1023 NOSIG

Aviation forecast (TAF) for Dublin Airport

Retrieved 2019/10/21 18:10 UTC (3 hours ago):

TAF EIDW 211700Z 2118/2218 26004KT 9999 SCT040 BECMG 2204/2206 22007KT BECMG 2211/2213 22011KT